Terminal Aerodrome Forecast
Issued by NWS Louisville, KY

Home | Current Version | Previous Version | Text Only | Print | Product List | Glossary On
Versions: 1 2 3 4 5 6 7 8 9 10 11 12 13 14 15 16 17 18 19
000
FTUS43 KLMK 241300 AAA
TAFLEX
TAF AMD
KLEX 241300Z 2413/2512 02010KT P6SM OVC024
     FM241700 02007KT P6SM BKN040
     FM250000 05004KT P6SM SKC=

USA.gov is the U.S. government's official web portal to all federal, state and local government web resources and services.